Time;durP1;ratioP1;P1;durP2;ratioP2;P2;SDS_P1;SDS_P2;PMS_P1;PMS_P2;Temp;Humidity;BMP_temperature;BMP_pressure;BME280_temperature;BME280_humidity;BME280_pressure;Samples;Min_cycle;Max_cycle;Signal;HPM_P1;HPM_P2
2022/05/10 00:00:49;;;;;;;13.88;9.50;;;12.60;63.30;;;;;;5077263;28;20068;-64
2022/05/10 00:03:15;;;;;;;16.30;9.13;;;12.60;63.60;;;;;;5041288;28;20032;-64
2022/05/10 00:05:41;;;;;;;16.13;9.73;;;12.50;63.60;;;;;;5039756;28;20055;-64
2022/05/10 00:08:12;;;;;;;21.05;9.52;;;12.50;63.60;;;;;;5043980;28;20051;-64
2022/05/10 00:10:38;;;;;;;20.45;10.98;;;12.40;63.70;;;;;;5075965;28;20554;-64
2022/05/10 00:13:05;;;;;;;16.58;9.90;;;12.40;63.70;;;;;;5053704;28;20553;-64
2022/05/10 00:15:31;;;;;;;15.05;9.25;;;12.40;64.10;;;;;;5056477;28;20524;-64
2022/05/10 00:17:57;;;;;;;18.88;10.57;;;12.40;64.10;;;;;;5036313;28;20051;-64
2022/05/10 00:20:25;;;;;;;20.00;10.57;;;12.40;64.50;;;;;;5069130;28;20032;-64
2022/05/10 00:22:51;;;;;;;22.35;10.77;;;12.40;64.40;;;;;;5051951;28;20036;-64
2022/05/10 00:25:23;;;;;;;16.92;9.75;;;12.40;64.60;;;;;;5060816;28;20056;-64
2022/05/10 00:27:49;;;;;;;16.77;10.25;;;12.40;64.40;;;;;;5054489;28;20039;-64
2022/05/10 00:30:15;;;;;;;19.90;11.37;;;12.40;64.50;;;;;;5023793;28;20045;-64
2022/05/10 00:32:42;;;;;;;16.60;10.27;;;12.40;64.70;;;;;;5041251;28;20291;-64
2022/05/10 00:35:18;;;;;;;16.95;10.63;;;12.30;64.80;;;;;;5058519;28;20439;-64
2022/05/10 00:37:45;;;;;;;23.50;11.38;;;12.30;64.90;;;;;;5084442;28;20032;-64
2022/05/10 00:40:13;;;;;;;17.08;10.75;;;12.30;64.80;;;;;;5075404;28;20272;-64
2022/05/10 00:42:49;;;;;;;17.08;10.07;;;12.30;64.90;;;;;;5083857;28;20119;-64
2022/05/10 00:45:19;;;;;;;16.77;10.60;;;12.30;65.20;;;;;;5061422;28;20067;-64
2022/05/10 00:48:02;;;;;;;19.17;10.20;;;12.30;65.30;;;;;;5086501;28;20056;-64
2022/05/10 00:50:37;;;;;;;20.25;10.32;;;12.30;65.10;;;;;;5051174;28;20889;-64
2022/05/10 00:53:23;;;;;;;19.38;10.80;;;12.30;65.10;;;;;;5052014;28;20108;-64
2022/05/10 00:55:49;;;;;;;18.55;10.07;;;12.30;65.30;;;;;;5064079;28;20040;-64
2022/05/10 00:58:46;;;;;;;18.03;10.17;;;12.30;65.10;;;;;;5046892;28;20321;-64
2022/05/10 01:01:26;;;;;;;17.58;9.77;;;12.30;65.30;;;;;;5062484;28;20053;-64
2022/05/10 01:04:09;;;;;;;17.13;10.32;;;12.30;65.20;;;;;;5080397;28;20048;-64
2022/05/10 01:07:09;;;;;;;19.92;10.40;;;12.30;65.20;;;;;;5065242;28;20056;-64
2022/05/10 01:09:41;;;;;;;18.60;10.00;;;12.30;65.30;;;;;;5039435;28;20071;-64
2022/05/10 01:12:20;;;;;;;15.57;10.65;;;12.30;65.20;;;;;;5059293;28;20071;-64
2022/05/10 01:14:46;;;;;;;18.77;10.82;;;12.30;65.40;;;;;;5053702;28;20063;-64
2022/05/10 01:17:12;;;;;;;16.60;10.97;;;12.30;65.80;;;;;;5062275;28;20512;-64
2022/05/10 01:19:39;;;;;;;18.05;11.45;;;12.30;65.60;;;;;;5069046;28;20041;-64
2022/05/10 01:22:31;;;;;;;17.02;11.07;;;12.30;65.60;;;;;;5056338;28;20045;-64
2022/05/10 01:25:29;;;;;;;16.52;11.63;;;12.40;65.60;;;;;;5078419;28;20328;-64
2022/05/10 01:28:44;;;;;;;19.50;11.50;;;12.30;65.60;;;;;;5051354;28;20048;-64
2022/05/10 01:31:17;;;;;;;17.23;11.45;;;12.30;65.80;;;;;;5029680;28;20400;-64
2022/05/10 01:33:49;;;;;;;17.40;11.68;;;12.20;65.80;;;;;;5078649;28;20103;-64
2022/05/10 01:36:23;;;;;;;17.08;11.30;;;12.10;66.10;;;;;;5045224;28;20111;-64
2022/05/10 01:39:00;;;;;;;18.52;11.98;;;12.10;66.20;;;;;;5059493;28;20053;-64
2022/05/10 01:41:34;;;;;;;18.38;12.10;;;12.00;66.60;;;;;;5046134;28;20080;-64
2022/05/10 01:44:18;;;;;;;21.17;12.07;;;12.00;66.50;;;;;;5059178;28;20132;-64
2022/05/10 01:46:46;;;;;;;18.50;12.02;;;12.00;66.70;;;;;;5045606;28;20036;-64
2022/05/10 01:49:17;;;;;;;18.95;11.05;;;12.00;67.10;;;;;;5057867;28;20094;-64
2022/05/10 01:51:52;;;;;;;18.92;13.32;;;12.00;66.80;;;;;;5041290;28;20036;-64
2022/05/10 01:54:36;;;;;;;;;;;11.90;67.30;;;;;;5043300;28;20619;-64
2022/05/10 01:57:03;;;;;;;20.65;11.77;;;11.90;67.90;;;;;;5062555;28;20435;-64
2022/05/10 01:59:28;;;;;;;19.20;13.30;;;11.90;67.60;;;;;;5075488;28;20042;-64
2022/05/10 02:01:56;;;;;;;16.33;11.70;;;11.90;67.60;;;;;;5074707;28;20423;-64
2022/05/10 02:04:28;;;;;;;18.33;12.25;;;12.00;67.80;;;;;;5059242;28;20048;-64
2022/05/10 02:06:57;;;;;;;21.50;11.90;;;12.00;67.50;;;;;;5090229;28;20090;-64
2022/05/10 02:09:26;;;;;;;19.10;11.73;;;12.00;67.50;;;;;;5037692;28;20064;-64
2022/05/10 02:12:15;;;;;;;18.20;11.80;;;12.00;67.70;;;;;;5088339;28;20068;-64
2022/05/10 02:15:23;;;;;;;15.55;11.07;;;12.10;67.70;;;;;;5058482;28;20047;-64
2022/05/10 02:18:07;;;;;;;18.15;11.63;;;12.10;67.60;;;;;;5045027;28;20090;-64
2022/05/10 02:20:46;;;;;;;17.20;11.30;;;12.10;67.80;;;;;;5093153;28;20471;-64
2022/05/10 02:23:30;;;;;;;18.90;12.15;;;12.20;67.80;;;;;;5059102;28;20065;-64
2022/05/10 02:26:07;;;;;;;18.73;11.70;;;12.20;67.70;;;;;;5058587;28;20134;-64
2022/05/10 02:28:41;;;;;;;17.58;10.82;;;12.20;67.90;;;;;;5091136;28;20508;-64
2022/05/10 02:34:39;;;;;;;15.25;10.90;;;12.30;68.10;;;;;;5056959;28;20089;-64
2022/05/10 02:37:05;;;;;;;18.67;11.30;;;12.30;67.90;;;;;;5043278;28;20074;-64
2022/05/10 02:39:31;;;;;;;20.80;11.63;;;12.40;68.00;;;;;;5076008;28;20040;-64
2022/05/10 02:41:58;;;;;;;15.25;10.48;;;12.40;67.80;;;;;;5059384;28;20301;-64
2022/05/10 02:44:24;;;;;;;19.80;11.32;;;12.40;67.80;;;;;;5073929;28;20111;-64
2022/05/10 02:46:50;;;;;;;16.30;10.17;;;12.50;67.70;;;;;;5072339;28;20115;-64
2022/05/10 02:49:17;;;;;;;15.73;10.90;;;12.50;67.90;;;;;;5060386;28;20051;-64
2022/05/10 02:51:43;;;;;;;15.73;10.45;;;12.50;67.90;;;;;;5020852;28;20063;-64
2022/05/10 02:54:09;;;;;;;14.13;11.10;;;12.50;68.10;;;;;;5088517;28;20044;-64
2022/05/10 02:56:34;;;;;;;17.00;10.77;;;12.50;67.90;;;;;;5024554;28;20028;-64
2022/05/10 02:59:23;;;;;;;16.07;10.47;;;12.50;67.80;;;;;;5060429;28;21622;-64
2022/05/10 03:02:14;;;;;;;19.38;10.43;;;12.50;67.80;;;;;;5058747;28;20052;-64
2022/05/10 03:04:43;;;;;;;14.35;10.30;;;12.50;67.90;;;;;;5056699;28;20036;-64
2022/05/10 03:07:10;;;;;;;14.25;10.20;;;12.50;68.10;;;;;;5090256;28;20036;-64
2022/05/10 03:09:36;;;;;;;17.70;11.15;;;12.50;68.20;;;;;;5090104;28;20040;-64
2022/05/10 03:12:05;;;;;;;18.02;10.00;;;12.60;68.40;;;;;;5090148;28;20053;-64
2022/05/10 03:14:31;;;;;;;18.48;11.35;;;12.60;68.30;;;;;;5058580;28;20117;-64
2022/05/10 03:16:56;;;;;;;17.75;10.38;;;12.60;68.40;;;;;;5053252;28;20128;-64
2022/05/10 03:19:22;;;;;;;20.47;10.20;;;12.60;68.50;;;;;;5055381;28;20115;-64
2022/05/10 03:21:48;;;;;;;19.00;11.60;;;12.60;68.20;;;;;;5053204;28;20075;-64
2022/05/10 03:24:14;;;;;;;20.33;11.57;;;12.60;68.30;;;;;;5071127;28;20048;-64
2022/05/10 03:26:50;;;;;;;20.38;10.02;;;12.60;68.50;;;;;;5087403;28;20129;-64
2022/05/10 03:29:17;;;;;;;16.60;10.93;;;12.60;68.40;;;;;;5071247;28;20036;-64
2022/05/10 03:31:43;;;;;;;25.08;12.02;;;12.60;68.40;;;;;;5071380;28;20037;-64
2022/05/10 03:36:53;;;;;;;18.42;11.48;;;12.60;68.30;;;;;;5087723;28;20086;-64
2022/05/10 03:39:19;;;;;;;15.10;10.30;;;12.60;68.80;;;;;;5072214;28;20496;-64
2022/05/10 03:41:45;;;;;;;18.67;11.65;;;12.60;68.60;;;;;;5056268;28;20037;-64
2022/05/10 03:44:11;;;;;;;18.93;11.30;;;12.60;68.70;;;;;;5089251;28;20118;-64
2022/05/10 03:46:36;;;;;;;16.33;10.83;;;12.70;68.60;;;;;;5090326;28;20032;-64
2022/05/10 03:49:03;;;;;;;19.73;10.97;;;12.70;68.80;;;;;;5062464;28;20045;-64
2022/05/10 03:51:30;;;;;;;20.55;11.43;;;12.70;68.70;;;;;;5076198;28;20627;-64
2022/05/10 03:53:55;;;;;;;18.00;11.57;;;12.70;68.80;;;;;;5044214;28;20537;-64
2022/05/10 03:56:22;;;;;;;19.60;12.37;;;12.70;68.70;;;;;;5027666;28;20048;-64
2022/05/10 03:58:47;;;;;;;21.60;11.40;;;12.70;68.90;;;;;;5045124;28;20239;-64
2022/05/10 04:01:13;;;;;;;15.50;10.80;;;12.70;68.90;;;;;;5028240;28;20491;-64
2022/05/10 04:03:39;;;;;;;17.03;11.27;;;12.70;69.20;;;;;;5041509;28;20040;-64
2022/05/10 04:06:06;;;;;;;20.47;11.17;;;12.80;69.00;;;;;;5026602;28;20127;-64
2022/05/10 04:08:32;;;;;;;16.15;11.23;;;12.80;69.00;;;;;;5044186;28;20141;-64
2022/05/10 04:11:06;;;;;;;16.97;11.50;;;12.80;69.10;;;;;;5044363;28;20121;-64
2022/05/10 04:13:32;;;;;;;15.43;10.65;;;12.80;69.10;;;;;;5044948;28;20033;-64
2022/05/10 04:15:58;;;;;;;17.20;11.20;;;12.80;69.10;;;;;;5010041;28;20435;-64
2022/05/10 04:18:25;;;;;;;21.17;11.87;;;12.90;69.30;;;;;;5029381;28;20374;-64
2022/05/10 04:20:51;;;;;;;15.47;10.50;;;12.90;69.30;;;;;;5042912;28;20422;-64
2022/05/10 04:23:16;;;;;;;17.53;10.87;;;13.00;69.10;;;;;;5063658;28;20323;-64
2022/05/10 04:25:43;;;;;;;18.60;10.93;;;13.00;69.20;;;;;;5061323;28;20084;-64
2022/05/10 04:28:09;;;;;;;18.00;10.55;;;13.00;68.80;;;;;;5042261;28;20037;-64
2022/05/10 04:30:35;;;;;;;14.50;10.90;;;13.10;69.00;;;;;;5027019;28;20076;-64
2022/05/10 04:33:01;;;;;;;17.17;11.10;;;13.10;69.00;;;;;;5028566;28;20540;-64
2022/05/10 04:35:27;;;;;;;18.53;11.00;;;13.20;68.90;;;;;;5042152;28;20102;-64
2022/05/10 04:37:53;;;;;;;17.53;10.53;;;13.30;68.90;;;;;;5046580;28;20044;-64
2022/05/10 04:43:05;;;;;;;17.92;10.68;;;13.40;68.60;;;;;;5046529;28;20697;-65
2022/05/10 04:45:34;;;;;;;15.27;10.97;;;13.50;68.30;;;;;;5053070;28;20071;-64
2022/05/10 04:47:59;;;;;;;17.50;10.43;;;13.50;68.10;;;;;;5067758;28;20290;-64
2022/05/10 04:50:25;;;;;;;19.10;10.20;;;13.60;68.00;;;;;;5077400;28;20294;-64
2022/05/10 04:52:51;;;;;;;14.90;9.60;;;13.70;67.80;;;;;;5043438;28;20139;-64
2022/05/10 04:55:17;;;;;;;15.93;10.27;;;13.70;67.50;;;;;;5057494;28;20167;-64
2022/05/10 04:57:43;;;;;;;19.40;10.93;;;13.80;67.40;;;;;;5023186;28;20297;-64
2022/05/10 05:00:12;;;;;;;16.20;10.63;;;13.90;67.30;;;;;;5044366;28;20412;-64
2022/05/10 05:02:38;;;;;;;18.00;10.27;;;13.90;67.10;;;;;;5051495;28;20049;-64
2022/05/10 05:05:05;;;;;;;18.03;10.40;;;14.00;67.10;;;;;;5070245;28;20283;-64
2022/05/10 05:07:31;;;;;;;17.93;10.93;;;14.00;67.10;;;;;;5054306;28;20278;-64
2022/05/10 05:09:56;;;;;;;18.63;10.00;;;14.00;67.20;;;;;;5059021;28;20681;-64
2022/05/10 05:12:22;;;;;;;14.87;9.77;;;14.10;66.90;;;;;;5060610;28;20047;-64
2022/05/10 05:14:48;;;;;;;16.90;10.00;;;14.20;67.00;;;;;;5085037;28;20048;-64
2022/05/10 05:17:14;;;;;;;15.10;10.57;;;14.20;66.90;;;;;;5059161;28;20099;-65
2022/05/10 05:19:40;;;;;;;16.57;9.97;;;14.20;66.70;;;;;;5060749;28;20048;-64
2022/05/10 05:22:06;;;;;;;15.23;10.87;;;14.30;66.60;;;;;;5055661;28;20040;-64
2022/05/10 05:24:31;;;;;;;15.47;10.07;;;14.40;66.40;;;;;;5044792;28;20479;-64
2022/05/10 05:26:57;;;;;;;20.30;10.40;;;14.40;66.40;;;;;;5061264;28;20289;-64
2022/05/10 05:29:23;;;;;;;16.63;9.60;;;14.40;66.40;;;;;;5038885;28;20465;-64
2022/05/10 05:31:51;;;;;;;18.37;10.73;;;14.50;66.50;;;;;;5042466;28;20040;-65
2022/05/10 05:34:18;;;;;;;15.23;10.67;;;14.50;66.20;;;;;;5058047;28;20305;-64
2022/05/10 05:37:32;;;;;;;17.23;10.27;;;14.60;65.90;;;;;;5051917;28;20387;-65
2022/05/10 05:39:29;;;;;;;18.67;10.27;;;14.70;65.80;;;;;;5059450;28;20302;-64
2022/05/10 05:41:55;;;;;;;15.17;9.77;;;14.80;65.60;;;;;;5072874;28;20291;-64
2022/05/10 05:44:23;;;;;;;15.37;10.07;;;14.80;65.40;;;;;;5057211;28;20043;-64
2022/05/10 05:46:50;;;;;;;16.77;9.63;;;15.00;65.20;;;;;;5065398;28;20071;-65
2022/05/10 05:49:16;;;;;;;16.90;10.70;;;15.00;65.20;;;;;;5058667;28;20298;-65
2022/05/10 05:51:42;;;;;;;15.73;9.63;;;15.10;64.80;;;;;;5037040;28;20299;-64
2022/05/10 05:54:11;;;;;;;14.13;10.27;;;15.20;64.70;;;;;;5042037;28;20051;-65
2022/05/10 05:56:36;;;;;;;14.03;9.60;;;15.30;64.60;;;;;;5054990;28;20045;-65
2022/05/10 05:59:02;;;;;;;16.13;10.30;;;15.50;64.20;;;;;;5077262;28;20650;-65
2022/05/10 06:01:28;;;;;;;14.37;9.47;;;15.60;63.90;;;;;;5042016;28;20044;-65
2022/05/10 06:03:55;;;;;;;17.60;10.07;;;15.70;63.70;;;;;;5039060;28;20302;-65
2022/05/10 06:06:21;;;;;;;15.40;9.33;;;15.90;63.20;;;;;;5034710;28;20049;-64
2022/05/10 06:08:47;;;;;;;13.50;9.50;;;16.00;63.10;;;;;;5038478;28;20352;-64
2022/05/10 06:11:13;;;;;;;14.73;10.03;;;16.00;62.80;;;;;;5058926;28;20052;-65
2022/05/10 06:13:39;;;;;;;13.77;9.73;;;16.10;62.90;;;;;;5063225;28;20044;-65
2022/05/10 06:16:08;;;;;;;14.77;9.77;;;16.10;62.80;;;;;;5058770;28;20293;-65
2022/05/10 06:18:35;;;;;;;17.37;9.77;;;16.10;63.10;;;;;;5047477;28;20503;-65
2022/05/10 06:21:00;;;;;;;14.20;9.50;;;16.10;63.00;;;;;;5058568;28;20307;-65
2022/05/10 06:23:27;;;;;;;13.03;9.50;;;16.10;63.10;;;;;;5053691;28;20302;-65
2022/05/10 06:25:52;;;;;;;15.43;10.23;;;16.20;62.90;;;;;;5055637;28;20106;-65
2022/05/10 06:28:19;;;;;;;16.47;10.57;;;16.30;63.00;;;;;;5077419;28;20313;-65
2022/05/10 06:30:46;;;;;;;13.77;9.73;;;16.40;63.00;;;;;;5055556;28;20041;-65
2022/05/10 06:33:12;;;;;;;14.83;9.60;;;16.50;62.80;;;;;;5037084;28;20283;-65
2022/05/10 06:35:39;;;;;;;17.77;9.60;;;16.60;62.60;;;;;;5035894;28;20402;-65
2022/05/10 06:38:24;;;;;;;16.13;10.33;;;16.80;62.50;;;;;;5067942;28;20290;-65
2022/05/10 06:40:50;;;;;;;14.38;9.85;;;16.90;62.00;;;;;;5070745;28;20306;-65
2022/05/10 06:43:16;;;;;;;11.63;8.77;;;17.00;61.90;;;;;;5037247;28;20045;-65
2022/05/10 06:45:42;;;;;;;17.10;9.67;;;17.20;61.80;;;;;;5024466;28;20044;-65
2022/05/10 06:48:09;;;;;;;14.23;8.90;;;17.20;61.40;;;;;;5054230;28;20307;-65
2022/05/10 08:27:36;;;;;;;13.90;7.00;;;20.20;53.40;;;;;;5085228;23;19932;-67
2022/05/10 08:30:02;;;;;;;13.40;7.30;;;20.30;53.20;;;;;;4828711;29;20318;-68
2022/05/10 08:32:28;;;;;;;11.50;6.40;;;20.40;53.20;;;;;;4821480;29;20049;-68
2022/05/10 08:34:53;;;;;;;10.37;6.63;;;20.60;53.00;;;;;;4854704;29;20363;-68
2022/05/10 08:37:19;;;;;;;11.17;6.80;;;20.70;52.80;;;;;;4821429;29;20079;-68
2022/05/10 08:39:45;;;;;;;15.27;8.07;;;20.90;53.60;;;;;;4852931;29;20053;-68
2022/05/10 08:42:24;;;;;;;9.17;5.73;;;21.00;52.60;;;;;;4840133;29;20389;-68
2022/05/10 08:45:03;;;;;;;11.77;6.00;;;21.10;51.90;;;;;;4854081;29;20049;-68
2022/05/10 08:47:30;;;;;;;10.20;5.90;;;21.20;52.20;;;;;;4847512;29;20045;-68
2022/05/10 08:50:01;;;;;;;10.57;5.80;;;21.30;51.20;;;;;;4869806;29;20387;-68
2022/05/10 08:52:34;;;;;;;8.33;5.20;;;21.50;51.00;;;;;;4870706;29;20045;-68
2022/05/10 08:55:00;;;;;;;9.43;5.60;;;21.60;50.60;;;;;;4858462;29;20045;-68
2022/05/10 08:57:35;;;;;;;8.93;5.20;;;21.70;50.50;;;;;;4869492;29;20057;-68
2022/05/10 09:00:04;;;;;;;;;;;21.80;49.40;;;;;;4849246;29;20049;-68
2022/05/10 09:02:44;;;;;;;10.43;5.30;;;21.90;49.70;;;;;;4849924;29;19924;-68
2022/05/10 09:05:29;;;;;;;9.83;5.73;;;21.90;49.30;;;;;;4854697;29;20450;-68
2022/05/10 09:08:04;;;;;;;13.83;5.40;;;22.00;49.60;;;;;;4859708;29;20420;-68
2022/05/10 09:10:48;;;;;;;16.08;5.30;;;22.10;49.20;;;;;;4855107;29;20132;-68
2022/05/10 09:13:17;;;;;;;10.20;5.60;;;22.20;48.40;;;;;;5173225;23;20092;-68
2022/05/10 09:16:04;;;;;;;10.63;5.67;;;22.30;47.60;;;;;;4848743;29;20053;-68
2022/05/10 09:18:37;;;;;;;12.10;5.70;;;22.40;48.10;;;;;;4832780;29;20046;-68
2022/05/10 09:21:21;;;;;;;10.37;5.77;;;22.50;48.10;;;;;;4836679;29;20054;-68
2022/05/10 09:24:05;;;;;;;11.40;6.40;;;22.50;48.80;;;;;;4833357;29;20106;-68
2022/05/10 09:26:42;;;;;;;13.07;7.38;;;22.50;48.80;;;;;;4843460;29;20417;-68
2022/05/10 09:29:22;;;;;;;13.00;7.67;;;22.60;48.60;;;;;;4817216;29;20098;-68
2022/05/10 09:34:47;;;;;;;13.37;7.67;;;22.50;49.20;;;;;;4842307;29;20417;-68
2022/05/10 09:37:24;;;;;;;12.83;7.90;;;22.60;49.40;;;;;;4842647;29;20057;-68
2022/05/10 09:39:56;;;;;;;13.53;8.53;;;22.70;49.20;;;;;;4849115;29;20057;-68
2022/05/10 09:42:38;;;;;;;15.17;8.57;;;22.80;49.30;;;;;;4841244;29;20060;-68
2022/05/10 09:45:20;;;;;;;13.93;8.23;;;22.80;49.10;;;;;;4855435;29;20046;-68
2022/05/10 09:48:17;;;;;;;15.23;8.50;;;22.70;49.00;;;;;;4821476;29;20050;-68
2022/05/10 09:50:49;;;;;;;11.33;8.07;;;22.80;49.00;;;;;;4834545;29;20045;-68
2022/05/10 09:53:22;;;;;;;13.27;9.27;;;22.80;49.80;;;;;;4818905;29;20050;-68
2022/05/10 09:56:00;;;;;;;13.57;8.30;;;22.80;49.80;;;;;;4837879;29;20050;-68
2022/05/10 09:58:28;;;;;;;13.93;8.67;;;22.80;50.60;;;;;;4823532;29;20053;-68
2022/05/10 10:00:55;;;;;;;16.63;9.13;;;22.80;50.00;;;;;;4831292;29;20050;-69
2022/05/10 10:03:29;;;;;;;14.03;9.30;;;22.70;50.30;;;;;;4834674;29;20057;-69
2022/05/10 10:06:11;;;;;;;12.00;9.07;;;22.60;50.20;;;;;;4812606;29;20095;-69
2022/05/10 10:08:49;;;;;;;14.03;8.50;;;22.50;50.20;;;;;;4823240;29;20115;-69
2022/05/10 10:11:24;;;;;;;14.10;9.63;;;22.40;50.80;;;;;;4840899;29;20050;-69
2022/05/10 10:13:56;;;;;;;17.40;9.27;;;22.40;50.70;;;;;;4853700;29;20050;-69
2022/05/10 10:16:28;;;;;;;11.57;9.00;;;22.50;50.70;;;;;;4853854;29;20469;-70
2022/05/10 10:19:04;;;;;;;13.10;8.63;;;22.50;50.40;;;;;;4812068;29;20081;-69
2022/05/10 10:21:38;;;;;;;13.13;9.27;;;22.30;50.70;;;;;;4861018;29;20061;-69
2022/05/10 10:24:04;;;;;;;12.32;8.52;;;22.30;51.10;;;;;;4858014;29;20050;-69
2022/05/10 10:26:33;;;;;;;18.03;9.50;;;22.20;51.00;;;;;;4839019;29;20081;-69
2022/05/10 10:29:24;;;;;;;12.20;9.80;;;22.20;51.70;;;;;;4859490;29;20043;-69
2022/05/10 10:32:06;;;;;;;15.20;9.23;;;22.10;51.40;;;;;;4820880;29;20510;-68
2022/05/10 10:34:36;;;;;;;14.90;9.37;;;22.10;51.70;;;;;;4855660;29;20046;-68
2022/05/10 10:37:14;;;;;;;14.53;9.57;;;21.90;52.30;;;;;;4848644;29;20088;-69
2022/05/10 10:40:19;;;;;;;12.13;9.90;;;21.70;53.00;;;;;;4857942;29;20136;-68
2022/05/10 10:43:09;;;;;;;15.97;8.63;;;21.70;53.00;;;;;;4831345;29;20055;-68
2022/05/10 10:45:43;;;;;;;13.03;7.67;;;21.70;53.30;;;;;;4837681;29;20072;-68
2022/05/10 10:48:20;;;;;;;13.77;8.03;;;21.60;53.40;;;;;;4861251;29;20042;-68
2022/05/10 10:50:46;;;;;;;12.57;7.40;;;21.60;53.10;;;;;;4818965;29;20054;-68
2022/05/10 10:53:13;;;;;;;10.83;7.53;;;21.60;53.20;;;;;;4850547;29;20139;-68
2022/05/10 10:56:03;;;;;;;12.50;6.20;;;21.60;53.50;;;;;;4837314;29;20046;-68
2022/05/10 10:58:40;;;;;;;11.70;4.70;;;21.70;53.00;;;;;;4847555;29;20058;-68
2022/05/10 11:01:38;;;;;;;10.13;5.13;;;21.70;52.40;;;;;;4828739;29;20081;-68
2022/05/10 11:04:33;;;;;;;13.03;5.23;;;21.70;52.40;;;;;;4835995;29;20046;-68
2022/05/10 11:07:07;;;;;;;12.03;5.80;;;21.70;52.70;;;;;;4825670;29;20046;-68
2022/05/10 11:09:54;;;;;;;14.18;4.70;;;21.70;53.30;;;;;;4866608;29;20045;-68
2022/05/10 11:12:38;;;;;;;11.33;4.90;;;21.80;53.30;;;;;;4858863;29;20081;-68
2022/05/10 11:15:22;;;;;;;10.97;4.60;;;21.80;53.10;;;;;;4841701;29;20088;-68
2022/05/10 11:17:54;;;;;;;12.60;5.07;;;22.00;52.60;;;;;;4843222;29;20327;-68
2022/05/10 11:20:56;;;;;;;9.17;4.20;;;21.80;50.90;;;;;;4832861;29;20051;-69
2022/05/10 11:24:00;;;;;;;10.43;4.90;;;21.90;52.20;;;;;;4836534;29;20046;-68
2022/05/10 11:26:28;;;;;;;7.77;4.07;;;22.10;50.60;;;;;;4828173;29;20051;-68
2022/05/10 11:29:29;;;;;;;10.77;4.60;;;22.20;50.40;;;;;;4853845;29;20530;-68
2022/05/10 11:32:01;;;;;;;9.03;3.70;;;22.10;49.70;;;;;;4823764;29;20064;-68
2022/05/10 11:35:00;;;;;;;13.43;4.20;;;21.90;49.40;;;;;;4830562;29;20082;-68
2022/05/10 11:37:32;;;;;;;11.03;3.60;;;22.00;49.50;;;;;;4823683;29;20050;-68
2022/05/10 11:40:11;;;;;;;8.07;3.07;;;22.10;48.00;;;;;;4828813;29;20046;-68
2022/05/10 11:42:48;;;;;;;8.90;3.17;;;22.20;48.10;;;;;;4818305;29;20413;-68
2022/05/10 11:45:35;;;;;;;12.27;3.30;;;22.10;48.00;;;;;;4856430;29;20058;-68
2022/05/10 11:48:19;;;;;;;6.53;3.23;;;22.10;48.90;;;;;;4835037;29;20134;-68
2022/05/10 11:51:38;;;;;;;8.63;2.80;;;22.10;48.40;;;;;;4847961;29;20054;-68
2022/05/10 11:53:51;;;;;;;8.93;3.10;;;22.10;48.20;;;;;;4839528;29;20467;-68
2022/05/10 11:56:17;;;;;;;8.13;2.63;;;22.30;47.60;;;;;;4840725;29;20125;-68
2022/05/10 11:58:44;;;;;;;5.80;2.40;;;22.00;47.60;;;;;;4822627;29;20153;-68
2022/05/10 12:01:40;;;;;;;7.67;2.27;;;22.00;46.20;;;;;;4828764;29;20121;-68
2022/05/10 12:04:06;;;;;;;9.90;1.97;;;21.90;44.60;;;;;;4832872;29;20053;-68
2022/05/10 12:06:35;;;;;;;6.93;2.00;;;21.70;43.80;;;;;;4834119;29;20074;-68
2022/05/10 12:09:04;;;;;;;6.43;2.03;;;21.80;44.60;;;;;;4840560;29;20419;-68
2022/05/10 12:11:33;;;;;;;4.30;1.10;;;21.80;44.80;;;;;;4832405;29;20141;-68
2022/05/10 12:22:50;;;;;;;7.13;1.60;;;21.20;42.40;;;;;;4837476;29;20575;-68
2022/05/10 12:25:42;;;;;;;2.57;0.70;;;20.90;42.50;;;;;;4846028;29;20037;-68
2022/05/10 12:28:08;;;;;;;6.50;1.07;;;20.60;40.20;;;;;;4854371;29;20038;-68
2022/05/10 12:30:34;;;;;;;5.30;0.80;;;20.30;41.00;;;;;;4821519;29;20416;-68
2022/05/10 12:33:36;;;;;;;4.37;0.70;;;20.30;40.80;;;;;;4853138;29;20065;-68
2022/05/10 12:36:09;;;;;;;2.70;0.70;;;20.20;41.00;;;;;;4853501;29;20464;-68
2022/05/10 12:38:49;;;;;;;2.87;0.63;;;20.20;41.80;;;;;;4849938;29;20323;-68
2022/05/10 12:41:47;;;;;;;3.87;0.73;;;20.10;41.80;;;;;;4850456;29;20743;-68
2022/05/10 12:44:49;;;;;;;4.07;0.63;;;20.10;41.40;;;;;;4829355;29;20703;-68
2022/05/10 12:47:56;;;;;;;3.47;0.77;;;19.90;41.90;;;;;;4837630;29;20287;-68
2022/05/10 12:50:31;;;;;;;1.57;0.77;;;19.80;43.70;;;;;;4855436;29;20303;-68
2022/05/10 12:52:56;;;;;;;3.45;0.93;;;19.60;43.20;;;;;;4856636;29;20294;-68
2022/05/10 12:55:33;;;;;;;5.20;1.13;;;19.50;43.40;;;;;;4834987;29;20046;-68
2022/05/10 12:58:14;;;;;;;7.67;1.10;;;19.50;45.30;;;;;;4829800;29;20076;-68
2022/05/10 13:00:52;;;;;;;6.00;1.20;;;19.50;45.20;;;;;;4827003;29;20331;-68
2022/05/10 13:03:29;;;;;;;5.93;1.53;;;19.50;45.80;;;;;;4825262;29;20856;-68
2022/05/10 13:06:03;;;;;;;4.63;1.23;;;19.50;47.00;;;;;;4854253;29;20291;-68
2022/05/10 13:08:51;;;;;;;5.80;2.30;;;19.60;48.40;;;;;;4850010;29;20286;-68
2022/05/10 13:11:22;;;;;;;6.13;2.00;;;19.60;48.80;;;;;;4845818;29;20078;-68
2022/05/10 13:13:52;;;;;;;5.97;1.73;;;19.60;49.90;;;;;;4845230;29;20315;-68
2022/05/10 13:16:20;;;;;;;6.17;2.00;;;19.50;49.80;;;;;;4828798;29;20299;-68
2022/05/10 13:18:47;;;;;;;8.80;1.80;;;19.40;49.50;;;;;;4864224;29;20652;-68
2022/05/10 13:21:24;;;;;;;7.53;2.10;;;19.30;48.70;;;;;;4848319;29;20681;-68
2022/05/10 13:23:52;;;;;;;7.67;2.27;;;19.30;48.90;;;;;;4822108;29;20845;-68
2022/05/10 13:26:17;;;;;;;4.90;2.00;;;19.20;49.20;;;;;;4852484;29;20806;-68
2022/05/10 13:28:59;;;;;;;4.00;1.83;;;19.00;49.60;;;;;;4837313;29;20291;-68
2022/05/10 13:31:34;;;;;;;5.57;1.80;;;18.70;49.60;;;;;;4822198;29;20515;-66
2022/05/10 13:34:14;;;;;;;4.38;1.83;;;18.50;49.70;;;;;;4822144;29;20291;-67
2022/05/10 13:36:46;;;;;;;6.03;1.90;;;18.40;50.50;;;;;;4853547;29;20502;-67
2022/05/10 13:39:16;;;;;;;3.43;1.77;;;18.50;51.10;;;;;;4842795;29;20779;-67
2022/05/10 13:41:42;;;;;;;4.27;1.73;;;18.60;50.50;;;;;;4822508;29;20342;-66
2022/05/10 13:44:21;;;;;;;8.07;2.77;;;18.50;49.70;;;;;;4844923;29;20307;-66
2022/05/10 13:46:57;;;;;;;3.83;1.80;;;18.30;50.30;;;;;;4823551;29;20346;-66
2022/05/10 13:49:28;;;;;;;6.37;1.80;;;18.10;51.00;;;;;;4825687;29;21030;-67
2022/05/10 13:51:57;;;;;;;7.23;1.70;;;18.00;51.30;;;;;;4844252;29;20781;-67
2022/05/10 13:54:25;;;;;;;5.33;1.60;;;18.00;51.10;;;;;;4850507;29;20323;-67
2022/05/10 13:56:51;;;;;;;4.20;1.80;;;18.00;51.10;;;;;;4847476;29;20346;-67
2022/05/10 13:59:31;;;;;;;5.73;2.20;;;18.00;51.90;;;;;;4824875;29;20299;-67
2022/05/10 14:02:03;;;;;;;5.00;1.97;;;17.90;51.80;;;;;;4829849;29;20323;-67
2022/05/10 14:04:30;;;;;;;5.77;1.70;;;17.90;52.40;;;;;;4842583;29;20783;-67
2022/05/10 14:07:05;;;;;;;5.70;2.03;;;17.90;52.20;;;;;;4837760;29;20373;-67
2022/05/10 14:09:39;;;;;;;3.60;1.33;;;18.00;52.50;;;;;;4839548;29;20278;-67
2022/05/10 14:12:15;;;;;;;4.07;2.13;;;18.00;51.60;;;;;;4822015;29;20046;-66
2022/05/10 14:14:41;;;;;;;7.43;2.20;;;18.00;51.80;;;;;;4830579;29;20111;-66
2022/05/10 14:17:07;;;;;;;4.80;2.03;;;17.80;51.70;;;;;;4837447;29;20819;-66
2022/05/10 14:19:45;;;;;;;7.80;2.77;;;17.90;52.10;;;;;;4858115;29;20292;-66
2022/05/10 14:22:23;;;;;;;5.10;2.83;;;17.80;52.20;;;;;;4856833;29;20072;-66
2022/05/10 14:24:50;;;;;;;6.40;2.53;;;17.70;53.30;;;;;;4826228;29;20292;-68
2022/05/10 14:27:23;;;;;;;6.33;2.87;;;17.70;53.20;;;;;;4845233;29;20280;-68
2022/05/10 14:29:54;;;;;;;6.87;3.13;;;17.70;53.60;;;;;;4840657;29;20291;-68
2022/05/10 14:32:19;;;;;;;5.53;2.10;;;17.70;54.10;;;;;;4840592;29;20544;-68
2022/05/10 14:34:51;;;;;;;4.00;2.10;;;17.70;53.80;;;;;;4846246;29;20885;-68
2022/05/10 14:37:49;;;;;;;4.63;2.30;;;17.60;54.40;;;;;;4806885;29;20104;-68
2022/05/10 14:40:21;;;;;;;7.20;2.00;;;17.60;54.50;;;;;;4810047;29;20318;-68
2022/05/10 14:43:12;;;;;;;6.97;1.90;;;17.50;54.80;;;;;;4856251;29;20355;-68
2022/05/10 14:45:40;;;;;;;6.30;2.20;;;17.40;56.20;;;;;;4807079;29;20792;-68
2022/05/10 14:48:24;;;;;;;5.47;2.50;;;17.30;56.70;;;;;;4848306;29;20292;-68
2022/05/10 14:50:53;;;;;;;7.07;2.70;;;17.30;57.20;;;;;;4852754;29;20862;-68
2022/05/10 14:53:24;;;;;;;7.67;2.60;;;17.20;57.70;;;;;;4824512;29;20383;-69
2022/05/10 14:55:53;;;;;;;4.30;2.30;;;17.10;58.40;;;;;;4853133;29;20347;-69
2022/05/10 14:58:29;;;;;;;6.63;2.33;;;17.10;58.40;;;;;;4843315;29;20357;-69
2022/05/10 15:01:31;;;;;;;6.40;2.73;;;17.10;58.60;;;;;;4834068;29;20319;-69
2022/05/10 15:04:13;;;;;;;9.27;3.47;;;17.20;58.00;;;;;;4840415;29;20331;-69